Time;durP1;ratioP1;P1;durP2;ratioP2;P2;SDS_P1;SDS_P2;PMS_P1;PMS_P2;Temp;Humidity;BMP_temperature;BMP_pressure;BME280_temperature;BME280_humidity;BME280_pressure;Samples;Min_cycle;Max_cycle;Signal;HPM_P1;HPM_P2
2023/09/03 00:01:21;;;;;;;10.70;6.07;;;16.60;99.90;;;;;;5032304;28;20025;-53
2023/09/03 00:03:46;;;;;;;6.35;5.75;;;16.60;99.90;;;;;;5032047;28;20029;-54
2023/09/03 00:06:12;;;;;;;6.95;5.80;;;16.50;99.90;;;;;;5031561;28;20049;-53
2023/09/03 00:08:37;;;;;;;7.25;5.70;;;16.40;99.90;;;;;;5020559;28;20026;-53
2023/09/03 00:11:03;;;;;;;11.07;6.40;;;16.40;99.90;;;;;;5012519;28;20030;-53
2023/09/03 00:13:28;;;;;;;8.63;5.93;;;16.40;99.90;;;;;;5011607;28;20491;-53
2023/09/03 00:15:53;;;;;;;7.10;5.45;;;16.40;99.90;;;;;;5011689;28;20580;-53
2023/09/03 00:18:19;;;;;;;5.70;5.00;;;16.30;99.90;;;;;;5012479;28;20057;-53
2023/09/03 00:21:00;;;;;;;5.70;5.18;;;16.30;99.90;;;;;;5010720;28;20022;-54
2023/09/03 00:23:26;;;;;;;7.60;5.35;;;16.30;99.90;;;;;;5011929;28;20037;-54
2023/09/03 00:25:52;;;;;;;9.10;5.97;;;16.20;99.90;;;;;;5010248;28;20173;-54
2023/09/03 00:28:18;;;;;;;5.90;5.28;;;16.20;99.90;;;;;;5010562;28;20278;-53
2023/09/03 00:30:44;;;;;;;6.57;5.50;;;16.20;99.90;;;;;;5010792;28;20020;-53
2023/09/03 00:33:09;;;;;;;7.75;5.78;;;16.10;99.90;;;;;;5012137;28;20098;-54
2023/09/03 00:35:34;;;;;;;7.70;6.00;;;16.20;99.90;;;;;;5011366;28;20033;-54
2023/09/03 00:38:00;;;;;;;6.80;5.78;;;16.10;99.90;;;;;;5011741;28;20062;-54
2023/09/03 00:40:26;;;;;;;7.05;5.70;;;16.10;99.90;;;;;;5010405;28;20133;-54
2023/09/03 00:42:51;;;;;;;5.45;4.93;;;16.10;99.90;;;;;;5010254;28;20394;-54
2023/09/03 00:45:17;;;;;;;5.88;4.90;;;16.00;99.90;;;;;;5011211;28;20034;-54
2023/09/03 00:47:43;;;;;;;5.68;4.63;;;16.00;99.90;;;;;;5011914;28;20346;-54
2023/09/03 00:50:09;;;;;;;11.98;5.82;;;15.90;99.90;;;;;;5011612;28;20484;-54
2023/09/03 00:52:36;;;;;;;7.28;5.28;;;15.90;99.90;;;;;;5011386;28;20041;-54
2023/09/03 00:55:02;;;;;;;7.85;5.18;;;15.90;99.90;;;;;;5011015;28;20026;-54
2023/09/03 00:57:28;;;;;;;6.15;4.60;;;15.90;99.90;;;;;;5011342;28;20462;-54
2023/09/03 00:59:55;;;;;;;5.75;4.93;;;15.90;99.90;;;;;;5011439;28;20032;-54
2023/09/03 01:02:21;;;;;;;8.40;5.85;;;15.90;99.90;;;;;;5011637;28;20411;-54
2023/09/03 01:04:47;;;;;;;5.93;4.95;;;15.90;99.90;;;;;;5010968;28;20113;-54
2023/09/03 01:07:16;;;;;;;5.75;5.00;;;15.90;99.90;;;;;;5011197;28;20124;-54
2023/09/03 01:09:42;;;;;;;6.28;5.45;;;15.90;99.90;;;;;;5022762;28;20023;-54
2023/09/03 01:12:15;;;;;;;7.82;6.18;;;15.90;99.90;;;;;;5026349;28;20187;-54
2023/09/03 01:15:10;;;;;;;7.38;6.50;;;15.80;99.90;;;;;;5030071;28;20029;-54
2023/09/03 01:17:46;;;;;;;6.00;5.15;;;15.80;99.90;;;;;;5024615;28;20029;-54
2023/09/03 01:20:35;;;;;;;9.10;6.03;;;15.80;99.90;;;;;;5021504;28;20022;-54
2023/09/03 01:23:13;;;;;;;5.72;4.97;;;15.80;99.90;;;;;;5025086;28;20021;-54
2023/09/03 01:25:45;;;;;;;6.55;5.93;;;15.80;99.90;;;;;;5045588;28;20029;-54
2023/09/03 01:28:31;;;;;;;7.80;5.10;;;15.80;99.90;;;;;;5030916;28;20105;-54
2023/09/03 01:31:08;;;;;;;8.27;6.07;;;15.80;99.90;;;;;;5030885;28;20022;-54
2023/09/03 01:33:38;;;;;;;6.97;5.32;;;15.70;99.90;;;;;;5046121;28;20022;-54
2023/09/03 01:36:06;;;;;;;6.23;5.30;;;15.80;99.90;;;;;;5045414;28;20475;-54
2023/09/03 01:38:38;;;;;;;8.90;5.38;;;15.80;99.90;;;;;;5027915;28;20034;-54
2023/09/03 01:41:05;;;;;;;8.25;5.82;;;15.70;99.90;;;;;;5030319;28;20244;-54
2023/09/03 01:43:30;;;;;;;6.95;5.60;;;15.80;99.90;;;;;;5045342;28;20033;-54
2023/09/03 01:46:09;;;;;;;7.90;5.35;;;15.70;99.90;;;;;;5026298;28;20553;-54
2023/09/03 01:48:53;;;;;;;5.05;4.55;;;15.80;99.90;;;;;;5026141;28;20022;-54
2023/09/03 01:51:31;;;;;;;5.32;4.82;;;15.70;99.90;;;;;;5042802;28;20503;-54
2023/09/03 01:54:27;;;;;;;9.45;5.47;;;15.70;99.90;;;;;;5027784;28;20013;-54
2023/09/03 01:57:04;;;;;;;8.02;5.75;;;15.70;99.90;;;;;;5020830;28;20013;-52
2023/09/03 01:59:43;;;;;;;5.53;4.57;;;15.70;99.90;;;;;;5027858;28;20029;-53
2023/09/03 02:02:09;;;;;;;5.55;4.90;;;15.60;99.90;;;;;;5027681;28;20021;-53
2023/09/03 02:04:35;;;;;;;5.68;5.10;;;15.50;99.90;;;;;;5029293;28;20087;-52
2023/09/03 02:07:01;;;;;;;5.05;4.57;;;15.50;99.90;;;;;;5028283;28;20060;-52
2023/09/03 02:09:26;;;;;;;5.85;4.70;;;15.50;99.90;;;;;;5035329;28;20075;-51
2023/09/03 02:11:52;;;;;;;5.40;4.80;;;15.40;99.90;;;;;;5019077;28;20045;-52
2023/09/03 02:14:17;;;;;;;6.45;4.90;;;15.40;99.90;;;;;;5020278;28;20096;-51
2023/09/03 02:16:43;;;;;;;6.35;5.57;;;15.30;99.90;;;;;;5019468;28;20028;-52
2023/09/03 02:19:09;;;;;;;8.32;5.60;;;15.30;99.90;;;;;;5028502;28;20061;-51
2023/09/03 02:21:34;;;;;;;10.48;5.60;;;15.30;99.90;;;;;;5030119;28;20257;-52
2023/09/03 02:24:00;;;;;;;5.57;5.07;;;15.30;99.90;;;;;;5044969;28;20040;-52
2023/09/03 02:26:25;;;;;;;5.97;5.05;;;15.20;99.90;;;;;;5029055;28;20101;-53
2023/09/03 02:28:51;;;;;;;6.97;5.72;;;15.20;99.90;;;;;;5029559;28;20368;-53
2023/09/03 02:31:16;;;;;;;8.27;5.38;;;15.20;99.90;;;;;;5029667;28;20065;-53
2023/09/03 02:33:42;;;;;;;5.22;4.72;;;15.10;99.90;;;;;;5029377;28;20055;-52
2023/09/03 02:36:07;;;;;;;6.05;4.88;;;15.10;99.90;;;;;;5029031;28;20405;-53
2023/09/03 02:38:33;;;;;;;7.50;4.85;;;15.10;99.90;;;;;;5028804;28;20281;-52
2023/09/03 02:40:58;;;;;;;5.90;4.78;;;15.10;99.90;;;;;;5029354;28;20025;-52
2023/09/03 02:43:24;;;;;;;9.55;5.55;;;15.10;99.90;;;;;;5029222;28;20033;-52
2023/09/03 02:45:49;;;;;;;6.88;5.43;;;15.10;99.90;;;;;;5027591;28;20115;-52
2023/09/03 02:48:15;;;;;;;7.60;6.03;;;15.00;99.90;;;;;;5029484;28;20056;-52
2023/09/03 02:50:40;;;;;;;7.40;4.97;;;15.00;99.90;;;;;;5029422;28;20022;-53
2023/09/03 02:53:06;;;;;;;7.18;5.85;;;15.00;99.90;;;;;;5029577;28;20029;-53
2023/09/03 02:55:32;;;;;;;7.82;5.47;;;15.00;99.90;;;;;;5028681;28;20383;-53
2023/09/03 02:57:58;;;;;;;5.50;4.90;;;14.90;99.90;;;;;;5029107;28;20044;-54
2023/09/03 03:00:24;;;;;;;8.70;5.60;;;14.90;99.90;;;;;;5029404;28;20018;-53
2023/09/03 03:02:50;;;;;;;8.95;5.75;;;14.90;99.90;;;;;;5029283;28;20535;-53
2023/09/03 03:05:16;;;;;;;9.35;5.00;;;14.80;99.90;;;;;;5028738;28;20056;-53
2023/09/03 03:07:42;;;;;;;11.63;5.93;;;14.80;99.90;;;;;;5028997;28;20482;-53
2023/09/03 03:10:09;;;;;;;6.63;5.30;;;14.80;99.90;;;;;;5029166;28;20036;-53
2023/09/03 03:12:34;;;;;;;6.07;4.88;;;14.70;99.90;;;;;;5029007;28;20095;-54
2023/09/03 03:15:00;;;;;;;8.52;5.57;;;14.70;99.90;;;;;;5028573;28;20057;-52
2023/09/03 03:17:25;;;;;;;7.18;5.47;;;14.60;99.90;;;;;;5028863;28;20072;-53
2023/09/03 03:19:51;;;;;;;8.43;6.25;;;14.60;99.90;;;;;;5028930;28;20013;-52
2023/09/03 03:22:16;;;;;;;6.43;5.15;;;14.50;99.90;;;;;;5029353;28;20025;-52
2023/09/03 03:24:42;;;;;;;7.75;5.70;;;14.40;99.90;;;;;;5028466;28;20465;-53
2023/09/03 03:27:08;;;;;;;7.93;6.35;;;14.40;99.90;;;;;;5029098;28;20108;-52
2023/09/03 03:29:34;;;;;;;7.90;6.10;;;14.40;99.90;;;;;;5028874;28;20022;-52
2023/09/03 03:31:59;;;;;;;7.03;6.32;;;14.40;99.90;;;;;;5043996;28;20483;-52
2023/09/03 03:34:25;;;;;;;7.60;6.20;;;14.30;99.90;;;;;;5028436;28;20026;-52
2023/09/03 03:36:51;;;;;;;6.97;6.20;;;14.30;99.90;;;;;;5029293;28;20398;-52
2023/09/03 03:39:17;;;;;;;7.28;5.57;;;14.30;99.90;;;;;;5043873;28;20060;-52
2023/09/03 03:41:42;;;;;;;10.88;6.97;;;14.30;99.90;;;;;;5028721;28;20055;-51
2023/09/03 03:44:08;;;;;;;11.60;7.22;;;14.30;99.90;;;;;;5028568;28;20030;-53
2023/09/03 03:46:33;;;;;;;8.32;6.80;;;14.20;99.90;;;;;;5028707;28;20076;-52
2023/09/03 03:49:05;;;;;;;9.85;7.43;;;14.20;99.90;;;;;;5029088;28;20037;-53
2023/09/03 03:51:30;;;;;;;13.52;8.05;;;14.20;99.90;;;;;;5047764;28;20028;-53
2023/09/03 03:53:58;;;;;;;9.50;7.75;;;14.20;99.90;;;;;;5032331;28;20018;-54
2023/09/03 03:56:23;;;;;;;10.35;7.60;;;14.20;99.90;;;;;;5032149;28;20024;-53
2023/09/03 03:58:49;;;;;;;12.68;9.20;;;14.20;99.90;;;;;;5032545;28;20022;-53
2023/09/03 04:01:16;;;;;;;10.30;8.15;;;14.10;99.90;;;;;;5032414;28;20026;-53
2023/09/03 04:03:43;;;;;;;12.23;9.18;;;14.10;99.90;;;;;;5032301;28;20037;-53
2023/09/03 04:06:09;;;;;;;10.32;8.10;;;14.10;99.90;;;;;;5032021;28;20121;-53
2023/09/03 04:08:36;;;;;;;13.93;9.77;;;14.00;99.90;;;;;;5032073;28;20108;-53
2023/09/03 04:11:07;;;;;;;14.13;10.65;;;14.00;99.90;;;;;;5032111;28;20014;-53
2023/09/03 04:13:33;;;;;;;13.70;10.48;;;13.90;99.90;;;;;;5032007;28;20430;-53
2023/09/03 04:15:59;;;;;;;13.68;9.15;;;13.90;99.90;;;;;;5031609;28;20053;-53
2023/09/03 04:18:26;;;;;;;15.82;9.68;;;13.90;99.90;;;;;;5047294;28;20570;-53
2023/09/03 04:20:53;;;;;;;12.88;9.50;;;13.80;99.90;;;;;;5031800;28;20321;-53
2023/09/03 04:23:19;;;;;;;14.35;9.45;;;13.80;99.90;;;;;;5031802;28;20187;-52
2023/09/03 04:25:45;;;;;;;12.45;9.82;;;13.80;99.90;;;;;;5031189;28;20092;-53
2023/09/03 04:28:10;;;;;;;14.65;10.20;;;13.70;99.90;;;;;;5031841;28;20029;-53
2023/09/03 04:30:37;;;;;;;12.27;8.60;;;13.70;99.90;;;;;;5031937;28;20084;-52
2023/09/03 04:33:04;;;;;;;18.77;10.13;;;13.70;99.90;;;;;;5031681;28;20021;-53
2023/09/03 04:35:30;;;;;;;12.18;9.27;;;13.60;99.90;;;;;;5031367;28;20048;-54
2023/09/03 04:37:55;;;;;;;13.55;10.27;;;13.70;99.90;;;;;;5031541;28;20378;-54
2023/09/03 04:40:21;;;;;;;12.07;9.57;;;13.70;99.90;;;;;;5031515;28;20022;-54
2023/09/03 04:42:47;;;;;;;14.57;12.15;;;13.60;99.90;;;;;;5029855;28;20030;-54
2023/09/03 04:45:12;;;;;;;16.05;10.52;;;13.70;99.90;;;;;;5025139;28;20026;-55
2023/09/03 04:47:38;;;;;;;18.08;11.70;;;13.70;99.90;;;;;;5031531;28;20022;-54
2023/09/03 04:50:04;;;;;;;13.52;9.43;;;13.70;99.90;;;;;;5026103;28;20025;-54
2023/09/03 04:52:29;;;;;;;13.80;10.70;;;13.70;99.90;;;;;;5026557;28;20029;-54
2023/09/03 04:54:55;;;;;;;14.85;10.65;;;13.70;99.90;;;;;;5030810;28;20497;-54
2023/09/03 04:57:21;;;;;;;15.15;10.05;;;13.70;99.90;;;;;;5031042;28;20045;-54
2023/09/03 04:59:46;;;;;;;13.38;10.00;;;13.70;99.90;;;;;;5030891;28;20037;-54
2023/09/03 05:02:12;;;;;;;16.98;11.15;;;13.70;99.90;;;;;;5025356;28;20026;-55
2023/09/03 05:04:37;;;;;;;14.02;11.07;;;13.70;99.90;;;;;;5025399;28;20038;-54
2023/09/03 05:07:04;;;;;;;15.02;11.60;;;13.70;99.90;;;;;;5025563;28;20387;-54
2023/09/03 05:09:31;;;;;;;16.23;11.10;;;13.70;99.90;;;;;;5022866;28;20105;-54
2023/09/03 05:11:56;;;;;;;14.32;10.43;;;13.80;99.90;;;;;;5013711;28;20028;-54
2023/09/03 05:14:22;;;;;;;18.02;11.93;;;13.80;99.90;;;;;;5019606;28;20064;-54
2023/09/03 05:16:47;;;;;;;17.83;12.57;;;13.80;99.90;;;;;;5020556;28;20034;-55
2023/09/03 05:19:14;;;;;;;14.98;11.10;;;13.80;99.90;;;;;;5030746;28;20025;-55
2023/09/03 05:21:43;;;;;;;13.90;10.85;;;13.90;99.90;;;;;;5031162;28;20434;-55
2023/09/03 05:24:10;;;;;;;16.85;11.23;;;13.90;99.90;;;;;;5045808;28;20069;-55
2023/09/03 05:26:36;;;;;;;12.73;9.25;;;13.90;99.90;;;;;;5030233;28;20560;-55
2023/09/03 05:29:01;;;;;;;13.55;9.48;;;14.00;99.90;;;;;;5046003;28;20021;-55
2023/09/03 05:31:27;;;;;;;15.75;11.45;;;14.00;99.90;;;;;;5045903;28;20029;-54
2023/09/03 05:33:52;;;;;;;18.25;11.27;;;14.00;99.90;;;;;;5028985;28;20025;-55
2023/09/03 05:36:18;;;;;;;14.60;10.65;;;14.10;99.90;;;;;;5029991;28;20025;-54
2023/09/03 05:38:43;;;;;;;15.07;9.85;;;14.10;99.90;;;;;;5029247;28;20037;-54
2023/09/03 05:41:09;;;;;;;11.75;9.45;;;14.10;99.90;;;;;;5023596;28;20066;-54
2023/09/03 05:43:36;;;;;;;20.13;10.98;;;14.20;99.90;;;;;;5030348;28;20226;-53
2023/09/03 05:46:02;;;;;;;14.20;10.02;;;14.20;99.90;;;;;;5029558;28;20036;-54
2023/09/03 05:48:28;;;;;;;16.48;10.30;;;14.30;99.90;;;;;;5030035;28;20022;-53
2023/09/03 05:51:03;;;;;;;14.18;10.48;;;14.30;99.90;;;;;;5030270;28;20021;-54
2023/09/03 05:53:33;;;;;;;13.27;10.13;;;14.40;99.90;;;;;;5030101;28;20021;-53
2023/09/03 05:56:04;;;;;;;11.63;8.82;;;14.50;99.90;;;;;;5029537;28;20378;-53
2023/09/03 05:58:30;;;;;;;16.33;11.20;;;14.50;99.90;;;;;;5030245;28;20061;-54
2023/09/03 06:00:55;;;;;;;11.32;8.90;;;14.50;99.90;;;;;;5029948;28;20095;-53
2023/09/03 06:03:21;;;;;;;14.02;9.82;;;14.60;99.90;;;;;;5029931;28;20033;-54
2023/09/03 06:05:47;;;;;;;15.27;9.07;;;14.60;99.90;;;;;;5029268;28;20026;-53
2023/09/03 06:08:12;;;;;;;11.70;9.32;;;14.60;99.90;;;;;;5029730;28;20052;-54
2023/09/03 06:10:38;;;;;;;16.13;11.13;;;14.60;99.90;;;;;;5029833;28;20024;-54
2023/09/03 06:13:03;;;;;;;12.18;10.00;;;14.70;99.90;;;;;;5028938;28;20102;-54
2023/09/03 06:15:29;;;;;;;12.68;9.10;;;14.70;99.90;;;;;;5029525;28;20450;-54
2023/09/03 06:17:54;;;;;;;12.93;9.10;;;14.70;99.90;;;;;;5029839;28;20551;-54
2023/09/03 06:20:20;;;;;;;11.32;8.90;;;14.80;99.90;;;;;;5029945;28;20044;-54
2023/09/03 06:22:45;;;;;;;15.85;9.95;;;14.80;99.90;;;;;;5029654;28;20024;-54
2023/09/03 06:25:11;;;;;;;13.50;8.45;;;14.80;99.90;;;;;;5029108;28;20416;-54
2023/09/03 06:27:36;;;;;;;21.02;8.65;;;14.90;99.90;;;;;;5029601;28;20028;-53
2023/09/03 06:30:03;;;;;;;12.05;8.85;;;15.00;99.90;;;;;;5029849;28;20105;-54
2023/09/03 06:32:28;;;;;;;9.95;7.55;;;15.00;99.90;;;;;;5029095;28;20025;-53
2023/09/03 06:34:54;;;;;;;10.65;8.05;;;15.00;99.90;;;;;;5028810;28;20372;-54
2023/09/03 06:37:19;;;;;;;11.32;8.35;;;15.10;99.90;;;;;;5029146;28;20037;-54
2023/09/03 06:39:45;;;;;;;9.95;7.88;;;15.10;99.90;;;;;;5020194;28;20076;-54
2023/09/03 06:42:11;;;;;;;10.32;7.95;;;15.20;99.90;;;;;;5011979;28;20453;-54
2023/09/03 06:44:36;;;;;;;14.43;8.38;;;15.30;99.90;;;;;;5013987;28;20415;-54
2023/09/03 06:47:02;;;;;;;12.35;7.63;;;15.30;99.90;;;;;;5035972;28;20025;-54
2023/09/03 06:49:27;;;;;;;8.40;7.40;;;15.30;99.90;;;;;;5035098;28;20144;-54
2023/09/03 06:51:53;;;;;;;10.45;7.13;;;15.30;99.90;;;;;;5024742;28;20029;-54
2023/09/03 06:54:18;;;;;;;12.13;8.00;;;15.50;99.90;;;;;;5028980;28;20025;-54
2023/09/03 06:56:44;;;;;;;9.23;6.28;;;15.40;99.90;;;;;;5029180;28;20037;-54
2023/09/03 06:59:09;;;;;;;10.75;7.30;;;15.40;99.90;;;;;;5029313;28;20029;-54
2023/09/03 07:01:35;;;;;;;9.90;7.05;;;15.40;99.90;;;;;;5029189;28;20123;-54
2023/09/03 07:04:00;;;;;;;9.85;7.50;;;15.40;99.90;;;;;;5028171;28;20029;-54
2023/09/03 07:06:26;;;;;;;9.63;7.20;;;15.40;99.90;;;;;;5027255;28;20104;-54
2023/09/03 07:08:52;;;;;;;8.38;5.55;;;15.50;99.90;;;;;;5025585;28;20502;-54
2023/09/03 07:11:18;;;;;;;12.55;6.22;;;15.50;99.90;;;;;;5023511;28;20486;-54
2023/09/03 07:13:43;;;;;;;8.77;6.60;;;15.60;99.90;;;;;;5029058;28;20056;-54
2023/09/03 07:16:09;;;;;;;6.82;5.55;;;15.70;99.90;;;;;;5027182;28;20051;-54
2023/09/03 07:18:34;;;;;;;7.15;5.82;;;15.90;99.90;;;;;;5029335;28;20021;-54
2023/09/03 07:21:05;;;;;;;6.15;5.05;;;16.00;99.90;;;;;;5028929;28;20437;-54
2023/09/03 07:23:30;;;;;;;9.90;6.00;;;16.10;99.90;;;;;;5030178;28;20383;-54
2023/09/03 07:26:02;;;;;;;7.07;5.45;;;16.30;99.90;;;;;;5029309;28;20037;-54
2023/09/03 07:28:27;;;;;;;9.45;5.53;;;16.50;99.90;;;;;;5032693;28;20036;-54
2023/09/03 07:30:53;;;;;;;7.72;5.03;;;16.90;99.90;;;;;;5047934;28;20029;-54
2023/09/03 07:33:18;;;;;;;7.93;4.53;;;17.10;99.90;;;;;;5030468;28;20383;-54
2023/09/03 07:35:44;;;;;;;6.82;4.45;;;17.50;99.90;;;;;;5023287;28;20068;-55
2023/09/03 07:38:09;;;;;;;7.57;4.03;;;17.90;99.90;;;;;;5027471;28;20095;-55
2023/09/03 07:40:38;;;;;;;5.65;3.60;;;18.50;99.90;;;;;;5031601;28;20499;-54
2023/09/03 07:43:04;;;;;;;4.65;3.65;;;18.60;99.90;;;;;;5033039;28;20029;-55
2023/09/03 07:45:29;;;;;;;4.97;3.30;;;18.80;99.90;;;;;;5029382;28;20560;-54
2023/09/03 07:47:55;;;;;;;5.47;3.42;;;19.10;99.90;;;;;;5032640;28;20441;-55
2023/09/03 07:50:20;;;;;;;5.18;3.05;;;19.50;99.90;;;;;;5032756;28;20100;-54
2023/09/03 07:52:46;;;;;;;4.28;3.00;;;20.00;99.90;;;;;;5047954;28;20025;-54
2023/09/03 07:55:11;;;;;;;4.07;2.80;;;20.30;99.90;;;;;;5031968;28;20061;-54
2023/09/03 07:57:37;;;;;;;8.80;2.95;;;20.60;99.90;;;;;;5025115;28;20270;-54
2023/09/03 08:00:03;;;;;;;3.35;2.40;;;20.80;99.90;;;;;;5012676;28;20037;-54
2023/09/03 08:02:29;;;;;;;5.10;3.00;;;21.00;99.90;;;;;;5012299;28;20033;-54
2023/09/03 08:04:55;;;;;;;7.03;2.72;;;21.20;99.90;;;;;;5011906;28;20026;-54
2023/09/03 08:07:21;;;;;;;6.45;3.05;;;21.40;99.90;;;;;;5012209;28;20113;-54
2023/09/03 08:09:46;;;;;;;3.60;2.40;;;21.80;99.90;;;;;;5012215;28;20539;-54
2023/09/03 08:12:12;;;;;;;4.28;2.25;;;22.10;99.90;;;;;;5012181;28;20065;-55
2023/09/03 08:14:38;;;;;;;4.15;1.90;;;22.30;99.90;;;;;;5011919;28;20087;-54
2023/09/03 08:17:04;;;;;;;5.15;1.88;;;22.70;99.90;;;;;;5013541;28;20034;-54
2023/09/03 08:19:30;;;;;;;4.35;1.50;;;23.30;99.80;;;;;;5023161;28;20132;-54
2023/09/03 08:21:55;;;;;;;4.03;1.80;;;23.30;97.50;;;;;;5024483;28;20036;-54
2023/09/03 08:24:21;;;;;;;3.05;1.63;;;23.90;97.30;;;;;;5027788;28;20400;-54
2023/09/03 08:26:48;;;;;;;2.50;1.27;;;24.00;94.60;;;;;;5021340;28;20087;-54
2023/09/03 08:29:13;;;;;;;2.80;1.23;;;23.60;96.10;;;;;;5024923;28;20032;-54
2023/09/03 08:31:39;;;;;;;3.13;1.30;;;24.00;94.10;;;;;;5025264;28;20021;-54
2023/09/03 08:34:04;;;;;;;2.85;1.63;;;23.70;95.10;;;;;;5025142;28;20104;-54
2023/09/03 08:36:30;;;;;;;5.50;1.67;;;24.50;94.50;;;;;;5029128;28;20280;-54
2023/09/03 08:38:55;;;;;;;2.40;1.20;;;24.60;93.30;;;;;;5031658;28;20037;-55
2023/09/03 08:41:24;;;;;;;2.20;1.25;;;24.80;92.30;;;;;;5031607;28;20485;-55
2023/09/03 08:43:55;;;;;;;2.97;1.60;;;25.50;91.70;;;;;;5030395;28;20318;-55
2023/09/03 08:46:24;;;;;;;1.80;1.13;;;26.10;91.30;;;;;;5031112;28;20025;-55
2023/09/03 08:48:50;;;;;;;3.47;1.42;;;26.70;89.70;;;;;;5031496;28;20029;-55
2023/09/03 08:51:16;;;;;;;3.15;1.50;;;27.70;88.20;;;;;;5027760;28;20030;-55
2023/09/03 08:53:44;;;;;;;1.80;1.35;;;28.40;84.30;;;;;;5026688;28;20239;-55
2023/09/03 08:56:10;;;;;;;2.95;1.30;;;28.90;81.00;;;;;;5026644;28;20121;-55
2023/09/03 08:58:36;;;;;;;3.92;1.58;;;29.30;78.30;;;;;;5029115;28;20388;-55
2023/09/03 09:01:03;;;;;;;3.58;1.10;;;30.20;75.40;;;;;;5028431;28;20037;-55
2023/09/03 09:03:29;;;;;;;3.03;1.10;;;30.70;74.70;;;;;;5028638;28;20114;-55
2023/09/03 09:05:55;;;;;;;3.28;1.50;;;30.40;71.70;;;;;;5025700;28;20159;-55
2023/09/03 09:08:23;;;;;;;2.47;1.05;;;30.00;73.90;;;;;;5028884;28;20103;-55
2023/09/03 09:10:51;;;;;;;2.30;1.05;;;30.30;71.30;;;;;;5028639;28;20013;-47
2023/09/03 09:13:24;;;;;;;2.60;1.33;;;30.60;70.60;;;;;;5028774;28;20430;-49
2023/09/03 09:15:50;;;;;;;1.83;1.10;;;30.70;67.70;;;;;;5026437;28;20475;-45
2023/09/03 09:18:15;;;;;;;2.50;1.40;;;30.40;69.20;;;;;;5020905;28;20017;-46
2023/09/03 09:20:41;;;;;;;2.38;1.27;;;30.90;69.40;;;;;;5028941;28;20095;-47
2023/09/03 09:23:08;;;;;;;1.30;1.02;;;30.90;66.40;;;;;;5030148;28;20112;-45
2023/09/03 09:25:35;;;;;;;3.08;1.35;;;31.40;64.00;;;;;;5030218;28;20540;-45
2023/09/03 09:28:10;;;;;;;2.80;1.20;;;31.60;65.90;;;;;;5030930;28;20101;-46
2023/09/03 09:30:35;;;;;;;1.15;0.90;;;32.10;64.80;;;;;;5045951;28;20018;-46
2023/09/03 09:33:06;;;;;;;2.25;1.10;;;32.10;65.90;;;;;;5023805;28;20028;-44
2023/09/03 09:35:33;;;;;;;2.78;1.42;;;32.50;63.10;;;;;;5020515;28;20022;-45
2023/09/03 09:38:09;;;;;;;2.08;1.42;;;32.10;63.40;;;;;;5021797;28;20025;-45
2023/09/03 09:40:36;;;;;;;2.97;0.90;;;32.00;62.40;;;;;;5024425;28;20041;-45
2023/09/03 09:43:06;;;;;;;1.52;1.20;;;31.10;64.20;;;;;;5024329;28;20025;-45
2023/09/03 09:45:32;;;;;;;3.42;1.17;;;31.10;63.60;;;;;;5025708;28;20029;-48
2023/09/03 09:48:09;;;;;;;3.50;1.08;;;31.00;65.50;;;;;;5022029;28;20114;-48
2023/09/03 09:50:48;;;;;;;1.45;0.80;;;30.90;62.40;;;;;;5024870;28;20021;-50
2023/09/03 09:53:22;;;;;;;3.25;0.95;;;30.50;62.80;;;;;;5024527;28;20045;-47
2023/09/03 09:55:55;;;;;;;1.10;1.00;;;31.20;64.40;;;;;;5036478;28;20038;-47
2023/09/03 09:58:21;;;;;;;1.17;0.90;;;31.70;62.50;;;;;;5025831;28;20080;-46
2023/09/03 10:00:53;;;;;;;0.90;0.70;;;32.00;65.10;;;;;;5024948;28;20029;-46
2023/09/03 10:03:18;;;;;;;2.03;1.00;;;32.20;60.70;;;;;;5021721;28;20105;-47
2023/09/03 10:05:48;;;;;;;4.32;1.10;;;32.60;60.80;;;;;;5029503;28;20105;-47
2023/09/03 10:08:15;;;;;;;3.63;1.20;;;32.50;58.40;;;;;;5042621;28;20033;-47
2023/09/03 10:10:41;;;;;;;0.90;0.70;;;32.80;58.40;;;;;;5010816;28;20079;-47
2023/09/03 10:13:08;;;;;;;2.92;0.90;;;32.40;60.60;;;;;;5021004;28;20453;-45
2023/09/03 10:15:35;;;;;;;1.63;1.20;;;33.10;57.40;;;;;;5033957;28;20498;-47
2023/09/03 10:18:02;;;;;;;1.30;0.90;;;33.20;59.90;;;;;;5029675;28;20099;-49
2023/09/03 10:20:28;;;;;;;2.17;0.90;;;34.30;57.40;;;;;;5016226;28;20030;-49
2023/09/03 10:22:56;;;;;;;1.75;1.15;;;33.70;57.20;;;;;;5015602;28;20120;-47
2023/09/03 10:25:26;;;;;;;1.48;0.98;;;33.10;59.30;;;;;;5023128;28;20064;-46
2023/09/03 10:28:04;;;;;;;1.00;0.75;;;33.50;57.50;;;;;;5029187;28;20028;-48
2023/09/03 10:30:34;;;;;;;1.20;0.90;;;33.60;58.90;;;;;;5029398;28;20044;-47
2023/09/03 10:33:01;;;;;;;1.67;0.90;;;33.50;56.10;;;;;;5025519;28;20030;-48
2023/09/03 10:35:27;;;;;;;2.00;0.93;;;33.50;57.10;;;;;;5015953;28;20037;-46
2023/09/03 10:37:53;;;;;;;1.17;0.95;;;34.00;56.80;;;;;;5018110;28;20060;-48
2023/09/03 10:40:26;;;;;;;2.95;1.00;;;34.00;57.70;;;;;;5016860;28;20097;-46
2023/09/03 10:43:14;;;;;;;1.13;0.93;;;33.60;57.80;;;;;;5022313;28;20025;-45
2023/09/03 10:46:00;;;;;;;2.55;1.38;;;32.90;58.20;;;;;;5013975;28;20045;-47
2023/09/03 10:48:25;;;;;;;3.92;1.38;;;31.90;57.10;;;;;;5029322;28;20048;-46
2023/09/03 10:50:52;;;;;;;1.75;1.02;;;31.60;59.30;;;;;;5028161;28;20052;-48
2023/09/03 10:53:34;;;;;;;2.05;1.00;;;31.30;58.80;;;;;;5029116;28;20021;-49
2023/09/03 10:56:14;;;;;;;2.17;1.00;;;30.80;61.10;;;;;;5028831;28;20426;-49
2023/09/03 10:58:58;;;;;;;;;;;31.00;63.20;;;;;;5014206;28;20028;-47
2023/09/03 11:01:30;;;;;;;1.02;1.00;;;30.70;59.10;;;;;;5009593;28;20315;-46
2023/09/03 11:03:58;;;;;;;1.63;1.15;;;30.90;59.60;;;;;;5009379;28;20105;-48
2023/09/03 11:06:25;;;;;;;1.42;1.17;;;30.60;60.00;;;;;;5020506;28;20041;-50
2023/09/03 11:09:03;;;;;;;2.85;2.08;;;30.30;57.70;;;;;;5029296;28;20529;-47
2023/09/03 11:11:33;;;;;;;2.45;1.42;;;29.60;59.70;;;;;;5029488;28;20028;-45
2023/09/03 11:13:59;;;;;;;1.13;0.95;;;29.20;60.40;;;;;;5044259;28;20022;-48
2023/09/03 11:16:36;;;;;;;2.25;1.30;;;28.80;63.40;;;;;;5017873;28;20510;-47
2023/09/03 11:19:07;;;;;;;2.72;1.33;;;29.30;63.00;;;;;;5022968;28;20044;-48
2023/09/03 11:21:34;;;;;;;1.13;1.02;;;29.40;62.80;;;;;;5023256;28;20072;-48
2023/09/03 11:24:06;;;;;;;2.05;1.08;;;29.60;61.50;;;;;;5027450;28;20017;-47
2023/09/03 11:26:33;;;;;;;1.75;1.20;;;30.00;63.60;;;;;;5019374;28;20068;-46
2023/09/03 11:29:00;;;;;;;0.80;0.80;;;30.60;62.60;;;;;;5020846;28;20037;-49
2023/09/03 11:31:26;;;;;;;1.20;0.80;;;31.30;59.40;;;;;;5028965;28;20080;-45
2023/09/03 11:33:52;;;;;;;1.45;1.08;;;31.60;60.00;;;;;;5029170;28;20071;-47
2023/09/03 11:36:21;;;;;;;1.10;0.90;;;32.60;60.10;;;;;;5028397;28;20033;-49
2023/09/03 11:38:48;;;;;;;1.25;0.90;;;32.70;57.60;;;;;;5029074;28;20144;-48
2023/09/03 11:41:17;;;;;;;1.83;1.05;;;33.00;56.60;;;;;;5029062;28;20030;-46
2023/09/03 11:43:42;;;;;;;1.20;1.10;;;32.50;57.70;;;;;;5028747;28;20018;-49
2023/09/03 11:46:16;;;;;;;1.50;1.13;;;32.90;59.00;;;;;;5028621;28;20471;-45
2023/09/03 11:48:51;;;;;;;1.98;1.15;;;32.40;57.50;;;;;;5028947;28;20018;-48
2023/09/03 11:51:27;;;;;;;3.05;1.30;;;32.40;57.10;;;;;;5028821;28;20029;-48
2023/09/03 11:53:53;;;;;;;2.45;1.13;;;32.80;57.80;;;;;;5028791;28;20021;-49
2023/09/03 11:56:21;;;;;;;1.60;1.00;;;31.90;56.20;;;;;;5028421;28;20364;-47
2023/09/03 11:58:52;;;;;;;1.85;1.30;;;31.60;60.20;;;;;;5028555;28;20029;-46
2023/09/03 12:01:17;;;;;;;2.00;1.10;;;31.40;59.90;;;;;;5027218;28;20530;-49
2023/09/03 12:03:43;;;;;;;1.38;1.00;;;31.40;60.60;;;;;;5026888;28;20061;-46
2023/09/03 12:06:09;;;;;;;1.98;1.10;;;31.10;61.00;;;;;;5026374;28;20057;-46
2023/09/03 12:08:35;;;;;;;1.13;1.02;;;30.30;60.70;;;;;;5027002;28;20048;-45
2023/09/03 12:11:01;;;;;;;1.15;0.95;;;30.00;57.90;;;;;;5028741;28;20017;-45
2023/09/03 12:13:30;;;;;;;1.65;1.30;;;29.60;57.80;;;;;;5030394;28;20063;-49
2023/09/03 12:16:25;;;;;;;2.17;1.25;;;29.70;59.90;;;;;;5031764;28;20021;-49
2023/09/03 12:18:58;;;;;;;1.48;1.27;;;29.50;63.80;;;;;;5019466;28;20029;-48
2023/09/03 12:21:34;;;;;;;7.20;1.77;;;29.10;60.20;;;;;;5021371;28;20026;-48
2023/09/03 12:24:04;;;;;;;1.92;1.10;;;29.10;67.70;;;;;;5012314;28;20080;-46
2023/09/03 12:26:31;;;;;;;1.25;1.15;;;28.60;62.50;;;;;;5023257;28;20109;-47
2023/09/03 12:28:58;;;;;;;2.13;1.27;;;28.50;66.20;;;;;;5031777;28;20025;-45
2023/09/03 12:31:39;;;;;;;3.80;1.40;;;28.30;63.80;;;;;;5031603;28;20021;-47
2023/09/03 12:34:04;;;;;;;5.00;1.42;;;28.30;64.90;;;;;;5043830;28;20513;-46
2023/09/03 12:36:31;;;;;;;2.15;1.40;;;28.10;66.00;;;;;;5020749;28;20037;-45
2023/09/03 12:39:03;;;;;;;1.92;1.60;;;27.60;67.40;;;;;;5022875;28;20053;-46
2023/09/03 12:41:34;;;;;;;2.60;1.13;;;27.60;66.70;;;;;;5031867;28;20017;-48
2023/09/03 12:44:07;;;;;;;3.25;1.40;;;27.60;66.90;;;;;;5025707;28;20091;-47
2023/09/03 12:46:34;;;;;;;1.50;1.30;;;27.40;68.40;;;;;;5017434;28;20052;-47